Main page
METAR-TAF:

METAR-TAF

Airports :

Changsha Huanghua International Airport

Changsha, China

latitude: 28-11N, longitude: 113-13E, elevation: 66 m

Current weather observation

The report was made 40 minutes ago, at 08:00 UTC
Wind 6 kt from the South with gusts up to 16 kt, varying between South/Southeast and West
Temperature 23°C
Humidity 44%
Pressure 1016 hPa
Visibility 10 km or more
no clouds below 1500 m and no cumulonimbus

METAR: ZGHA 220800Z 18003G08MPS 160V270 CAVOK 23/10 Q1016 NOSIG

Time: 16:40 (08:40 UTC)

Forecast

The report was made 6 hours and 10 minutes ago, at 02:30 UTC
Forecast valid from 22 at 06 UTC to 23 at 06 UTC
Wind 6 kt from the North
Visibility: 6000 m

TAF: ZGHA 220230Z 2206/2306 35003MPS 6000 NSC TX22/2206Z TN10/2222Z

Weather observations and forecasts of more than 4000 airports (METAR and TAF reports).

The available stations are represented by yellow and red dots on the map.

Hover mouse over dot to see the name of the station.

Then click to see weather observations and forecasts.

To change the map : click on the green buttons with a black cross to zoom in, on the green button with a dash to zoom out, or on the green arrows for adjacent maps.


METAR-TAF: